sensor_id;sensor_type;location;lat;lon;timestamp;P1;durP1;ratioP1;P2;durP2;ratioP2
63714;SDS011;49858;48.956;9.076;2023-03-21T00:00:47;12.90;;;5.88;;
63714;SDS011;49858;48.956;9.076;2023-03-21T00:03:19;10.45;;;6.32;;
63714;SDS011;49858;48.956;9.076;2023-03-21T00:05:47;8.65;;;5.13;;
63714;SDS011;49858;48.956;9.076;2023-03-21T00:08:18;8.45;;;5.05;;
63714;SDS011;49858;48.956;9.076;2023-03-21T00:10:48;11.60;;;5.50;;
63714;SDS011;49858;48.956;9.076;2023-03-21T00:13:22;9.30;;;5.43;;
63714;SDS011;49858;48.956;9.076;2023-03-21T00:15:52;8.73;;;5.60;;
63714;SDS011;49858;48.956;9.076;2023-03-21T00:18:40;8.63;;;5.07;;
63714;SDS011;49858;48.956;9.076;2023-03-21T00:21:12;12.30;;;5.95;;
63714;SDS011;49858;48.956;9.076;2023-03-21T00:24:01;10.48;;;5.80;;
63714;SDS011;49858;48.956;9.076;2023-03-21T00:26:31;11.93;;;5.90;;
63714;SDS011;49858;48.956;9.076;2023-03-21T00:28:59;10.18;;;5.70;;
63714;SDS011;49858;48.956;9.076;2023-03-21T00:31:27;10.23;;;6.03;;
63714;SDS011;49858;48.956;9.076;2023-03-21T00:33:55;11.85;;;6.40;;
63714;SDS011;49858;48.956;9.076;2023-03-21T00:36:23;11.68;;;7.20;;
63714;SDS011;49858;48.956;9.076;2023-03-21T00:38:52;12.95;;;6.72;;
63714;SDS011;49858;48.956;9.076;2023-03-21T00:41:20;10.38;;;6.78;;
63714;SDS011;49858;48.956;9.076;2023-03-21T00:44:08;10.20;;;5.90;;
63714;SDS011;49858;48.956;9.076;2023-03-21T00:46:37;13.02;;;6.80;;
63714;SDS011;49858;48.956;9.076;2023-03-21T00:49:16;12.00;;;7.15;;
63714;SDS011;49858;48.956;9.076;2023-03-21T00:51:46;12.00;;;6.03;;
63714;SDS011;49858;48.956;9.076;2023-03-21T00:54:17;9.88;;;6.60;;
63714;SDS011;49858;48.956;9.076;2023-03-21T00:56:45;9.85;;;6.53;;
63714;SDS011;49858;48.956;9.076;2023-03-21T00:59:14;9.07;;;6.30;;
63714;SDS011;49858;48.956;9.076;2023-03-21T01:01:42;12.95;;;6.97;;
63714;SDS011;49858;48.956;9.076;2023-03-21T01:04:12;11.73;;;6.60;;
63714;SDS011;49858;48.956;9.076;2023-03-21T01:06:42;10.15;;;6.93;;
63714;SDS011;49858;48.956;9.076;2023-03-21T01:09:11;11.35;;;6.85;;
63714;SDS011;49858;48.956;9.076;2023-03-21T01:11:43;10.55;;;6.68;;
63714;SDS011;49858;48.956;9.076;2023-03-21T01:14:11;9.57;;;6.43;;
63714;SDS011;49858;48.956;9.076;2023-03-21T01:16:50;10.82;;;6.93;;
63714;SDS011;49858;48.956;9.076;2023-03-21T01:19:20;10.82;;;7.22;;
63714;SDS011;49858;48.956;9.076;2023-03-21T01:22:06;15.20;;;7.40;;
63714;SDS011;49858;48.956;9.076;2023-03-21T01:24:34;16.17;;;7.65;;
63714;SDS011;49858;48.956;9.076;2023-03-21T01:27:12;13.75;;;7.53;;
63714;SDS011;49858;48.956;9.076;2023-03-21T01:29:40;14.63;;;7.72;;
63714;SDS011;49858;48.956;9.076;2023-03-21T01:32:09;11.85;;;7.90;;
63714;SDS011;49858;48.956;9.076;2023-03-21T01:34:37;12.30;;;7.35;;
63714;SDS011;49858;48.956;9.076;2023-03-21T01:37:05;13.02;;;7.45;;
63714;SDS011;49858;48.956;9.076;2023-03-21T01:39:41;13.07;;;7.55;;
63714;SDS011;49858;48.956;9.076;2023-03-21T01:42:09;14.82;;;6.85;;
63714;SDS011;49858;48.956;9.076;2023-03-21T01:44:54;14.88;;;7.15;;
63714;SDS011;49858;48.956;9.076;2023-03-21T01:47:33;13.88;;;7.00;;
63714;SDS011;49858;48.956;9.076;2023-03-21T01:50:19;14.93;;;6.40;;
63714;SDS011;49858;48.956;9.076;2023-03-21T01:52:57;12.07;;;6.57;;
63714;SDS011;49858;48.956;9.076;2023-03-21T01:55:27;10.98;;;6.68;;
63714;SDS011;49858;48.956;9.076;2023-03-21T01:57:59;10.43;;;6.78;;
63714;SDS011;49858;48.956;9.076;2023-03-21T02:00:41;12.43;;;6.63;;
63714;SDS011;49858;48.956;9.076;2023-03-21T02:03:24;11.32;;;6.65;;
63714;SDS011;49858;48.956;9.076;2023-03-21T02:06:35;12.18;;;6.20;;
63714;SDS011;49858;48.956;9.076;2023-03-21T02:09:32;13.45;;;6.85;;
63714;SDS011;49858;48.956;9.076;2023-03-21T02:12:09;13.13;;;6.22;;
63714;SDS011;49858;48.956;9.076;2023-03-21T02:14:37;13.63;;;7.00;;
63714;SDS011;49858;48.956;9.076;2023-03-21T02:17:17;12.32;;;7.05;;
63714;SDS011;49858;48.956;9.076;2023-03-21T02:20:09;11.95;;;6.88;;
63714;SDS011;49858;48.956;9.076;2023-03-21T02:23:06;14.15;;;8.02;;
63714;SDS011;49858;48.956;9.076;2023-03-21T02:26:10;13.32;;;8.85;;
63714;SDS011;49858;48.956;9.076;2023-03-21T02:29:10;36.95;;;27.52;;
63714;SDS011;49858;48.956;9.076;2023-03-21T02:31:53;17.67;;;9.35;;
63714;SDS011;49858;48.956;9.076;2023-03-21T02:34:52;12.32;;;6.80;;
63714;SDS011;49858;48.956;9.076;2023-03-21T02:37:35;9.02;;;6.28;;
63714;SDS011;49858;48.956;9.076;2023-03-21T02:40:11;13.70;;;7.70;;
63714;SDS011;49858;48.956;9.076;2023-03-21T02:42:50;11.30;;;7.00;;
63714;SDS011;49858;48.956;9.076;2023-03-21T02:45:32;10.80;;;6.72;;
63714;SDS011;49858;48.956;9.076;2023-03-21T02:48:05;9.68;;;5.35;;
63714;SDS011;49858;48.956;9.076;2023-03-21T02:50:51;8.02;;;5.50;;
63714;SDS011;49858;48.956;9.076;2023-03-21T02:53:24;12.05;;;5.05;;
63714;SDS011;49858;48.956;9.076;2023-03-21T02:55:58;10.68;;;6.10;;
63714;SDS011;49858;48.956;9.076;2023-03-21T02:58:29;14.40;;;7.10;;
63714;SDS011;49858;48.956;9.076;2023-03-21T03:00:59;11.18;;;6.32;;
63714;SDS011;49858;48.956;9.076;2023-03-21T03:03:34;8.23;;;5.85;;
63714;SDS011;49858;48.956;9.076;2023-03-21T03:06:08;18.00;;;7.30;;
63714;SDS011;49858;48.956;9.076;2023-03-21T03:08:50;12.52;;;7.45;;
63714;SDS011;49858;48.956;9.076;2023-03-21T03:11:31;13.48;;;8.25;;
63714;SDS011;49858;48.956;9.076;2023-03-21T03:14:21;14.55;;;7.80;;
63714;SDS011;49858;48.956;9.076;2023-03-21T03:17:34;13.10;;;7.82;;
63714;SDS011;49858;48.956;9.076;2023-03-21T03:20:14;14.57;;;7.70;;
63714;SDS011;49858;48.956;9.076;2023-03-21T03:22:51;12.48;;;7.70;;
63714;SDS011;49858;48.956;9.076;2023-03-21T03:25:27;14.15;;;8.07;;
63714;SDS011;49858;48.956;9.076;2023-03-21T03:28:13;11.13;;;7.68;;
63714;SDS011;49858;48.956;9.076;2023-03-21T03:30:44;14.60;;;8.68;;
63714;SDS011;49858;48.956;9.076;2023-03-21T03:33:37;13.95;;;7.55;;
63714;SDS011;49858;48.956;9.076;2023-03-21T03:36:11;10.25;;;6.75;;
63714;SDS011;49858;48.956;9.076;2023-03-21T03:39:06;10.90;;;6.30;;
63714;SDS011;49858;48.956;9.076;2023-03-21T03:41:42;10.48;;;6.25;;
63714;SDS011;49858;48.956;9.076;2023-03-21T03:44:36;10.43;;;5.95;;
63714;SDS011;49858;48.956;9.076;2023-03-21T03:47:07;8.77;;;5.55;;
63714;SDS011;49858;48.956;9.076;2023-03-21T03:49:52;8.88;;;6.00;;
63714;SDS011;49858;48.956;9.076;2023-03-21T03:52:27;10.65;;;6.78;;
63714;SDS011;49858;48.956;9.076;2023-03-21T03:55:03;10.43;;;6.97;;
63714;SDS011;49858;48.956;9.076;2023-03-21T03:57:37;11.70;;;7.47;;
63714;SDS011;49858;48.956;9.076;2023-03-21T04:00:06;15.38;;;6.72;;
63714;SDS011;49858;48.956;9.076;2023-03-21T04:02:46;14.43;;;6.80;;
63714;SDS011;49858;48.956;9.076;2023-03-21T04:05:18;18.27;;;6.90;;
63714;SDS011;49858;48.956;9.076;2023-03-21T04:07:47;12.40;;;6.63;;
63714;SDS011;49858;48.956;9.076;2023-03-21T04:10:17;11.90;;;6.68;;
63714;SDS011;49858;48.956;9.076;2023-03-21T04:12:48;10.35;;;6.95;;
63714;SDS011;49858;48.956;9.076;2023-03-21T04:15:22;10.43;;;7.15;;
63714;SDS011;49858;48.956;9.076;2023-03-21T04:17:58;12.13;;;7.53;;
63714;SDS011;49858;48.956;9.076;2023-03-21T04:20:26;14.05;;;7.35;;
63714;SDS011;49858;48.956;9.076;2023-03-21T04:23:09;19.67;;;7.65;;
63714;SDS011;49858;48.956;9.076;2023-03-21T04:25:42;14.60;;;7.78;;
63714;SDS011;49858;48.956;9.076;2023-03-21T04:28:26;13.43;;;7.68;;
63714;SDS011;49858;48.956;9.076;2023-03-21T04:31:07;18.63;;;8.60;;
63714;SDS011;49858;48.956;9.076;2023-03-21T04:33:52;16.65;;;8.63;;
63714;SDS011;49858;48.956;9.076;2023-03-21T04:36:21;10.18;;;7.07;;
63714;SDS011;49858;48.956;9.076;2023-03-21T04:38:58;13.13;;;7.40;;
63714;SDS011;49858;48.956;9.076;2023-03-21T04:41:28;13.00;;;7.18;;
63714;SDS011;49858;48.956;9.076;2023-03-21T04:43:57;14.43;;;7.20;;
63714;SDS011;49858;48.956;9.076;2023-03-21T04:46:25;12.15;;;7.10;;
63714;SDS011;49858;48.956;9.076;2023-03-21T04:48:53;16.35;;;7.97;;
63714;SDS011;49858;48.956;9.076;2023-03-21T04:51:20;14.65;;;7.38;;
63714;SDS011;49858;48.956;9.076;2023-03-21T04:53:48;10.65;;;7.50;;
63714;SDS011;49858;48.956;9.076;2023-03-21T04:56:17;15.13;;;8.30;;
63714;SDS011;49858;48.956;9.076;2023-03-21T04:58:45;14.02;;;8.32;;
63714;SDS011;49858;48.956;9.076;2023-03-21T05:01:14;12.55;;;7.70;;
63714;SDS011;49858;48.956;9.076;2023-03-21T05:03:46;13.38;;;8.20;;
63714;SDS011;49858;48.956;9.076;2023-03-21T05:06:14;14.45;;;8.32;;
63714;SDS011;49858;48.956;9.076;2023-03-21T05:08:42;14.05;;;8.68;;
63714;SDS011;49858;48.956;9.076;2023-03-21T05:11:10;18.48;;;9.10;;
63714;SDS011;49858;48.956;9.076;2023-03-21T05:13:38;14.50;;;9.57;;
63714;SDS011;49858;48.956;9.076;2023-03-21T05:16:07;15.20;;;8.77;;
63714;SDS011;49858;48.956;9.076;2023-03-21T05:18:36;16.13;;;9.40;;
63714;SDS011;49858;48.956;9.076;2023-03-21T05:21:11;13.50;;;8.60;;
63714;SDS011;49858;48.956;9.076;2023-03-21T05:23:46;11.20;;;7.60;;
63714;SDS011;49858;48.956;9.076;2023-03-21T05:26:20;15.05;;;8.35;;
63714;SDS011;49858;48.956;9.076;2023-03-21T05:31:33;13.57;;;8.07;;
63714;SDS011;49858;48.956;9.076;2023-03-21T05:34:08;14.82;;;8.88;;
63714;SDS011;49858;48.956;9.076;2023-03-21T05:36:36;16.75;;;9.23;;
63714;SDS011;49858;48.956;9.076;2023-03-21T05:39:06;12.73;;;8.30;;
63714;SDS011;49858;48.956;9.076;2023-03-21T05:41:39;17.00;;;8.73;;
63714;SDS011;49858;48.956;9.076;2023-03-21T05:44:08;20.58;;;11.35;;
63714;SDS011;49858;48.956;9.076;2023-03-21T05:46:37;15.00;;;9.35;;
63714;SDS011;49858;48.956;9.076;2023-03-21T05:49:05;13.07;;;8.02;;
63714;SDS011;49858;48.956;9.076;2023-03-21T05:51:34;11.55;;;7.13;;
63714;SDS011;49858;48.956;9.076;2023-03-21T05:54:01;10.38;;;6.82;;
63714;SDS011;49858;48.956;9.076;2023-03-21T05:56:30;11.57;;;6.10;;
63714;SDS011;49858;48.956;9.076;2023-03-21T05:59:03;13.45;;;6.40;;
63714;SDS011;49858;48.956;9.076;2023-03-21T06:01:37;13.05;;;5.70;;
63714;SDS011;49858;48.956;9.076;2023-03-21T06:04:10;9.13;;;5.72;;
63714;SDS011;49858;48.956;9.076;2023-03-21T06:06:40;9.20;;;5.40;;
63714;SDS011;49858;48.956;9.076;2023-03-21T06:09:08;8.98;;;5.47;;
63714;SDS011;49858;48.956;9.076;2023-03-21T06:11:38;10.25;;;5.88;;
63714;SDS011;49858;48.956;9.076;2023-03-21T06:14:43;10.20;;;5.70;;
63714;SDS011;49858;48.956;9.076;2023-03-21T06:17:17;9.73;;;5.55;;
63714;SDS011;49858;48.956;9.076;2023-03-21T06:19:49;10.75;;;5.88;;
63714;SDS011;49858;48.956;9.076;2023-03-21T06:22:26;10.73;;;5.10;;
63714;SDS011;49858;48.956;9.076;2023-03-21T06:24:54;7.78;;;5.45;;
63714;SDS011;49858;48.956;9.076;2023-03-21T06:27:22;9.73;;;4.80;;
63714;SDS011;49858;48.956;9.076;2023-03-21T06:29:54;8.18;;;4.95;;
63714;SDS011;49858;48.956;9.076;2023-03-21T06:32:23;10.95;;;5.18;;
63714;SDS011;49858;48.956;9.076;2023-03-21T06:34:56;9.73;;;5.00;;
63714;SDS011;49858;48.956;9.076;2023-03-21T06:37:24;7.70;;;4.35;;
63714;SDS011;49858;48.956;9.076;2023-03-21T06:39:54;7.93;;;5.10;;
63714;SDS011;49858;48.956;9.076;2023-03-21T06:42:22;7.13;;;4.65;;
63714;SDS011;49858;48.956;9.076;2023-03-21T06:44:56;8.73;;;5.15;;
63714;SDS011;49858;48.956;9.076;2023-03-21T06:47:25;7.35;;;4.93;;
63714;SDS011;49858;48.956;9.076;2023-03-21T06:49:53;7.15;;;4.57;;
63714;SDS011;49858;48.956;9.076;2023-03-21T06:52:21;9.02;;;5.07;;
63714;SDS011;49858;48.956;9.076;2023-03-21T06:54:51;7.97;;;5.53;;
63714;SDS011;49858;48.956;9.076;2023-03-21T06:57:21;7.53;;;4.90;;
63714;SDS011;49858;48.956;9.076;2023-03-21T06:59:49;9.65;;;4.95;;
63714;SDS011;49858;48.956;9.076;2023-03-21T07:02:19;8.07;;;4.18;;
63714;SDS011;49858;48.956;9.076;2023-03-21T07:05:13;9.07;;;4.00;;
63714;SDS011;49858;48.956;9.076;2023-03-21T07:07:42;5.70;;;4.05;;
63714;SDS011;49858;48.956;9.076;2023-03-21T07:10:11;5.60;;;3.17;;
63714;SDS011;49858;48.956;9.076;2023-03-21T07:12:53;7.55;;;3.35;;
63714;SDS011;49858;48.956;9.076;2023-03-21T07:15:28;5.30;;;3.67;;
63714;SDS011;49858;48.956;9.076;2023-03-21T07:17:56;4.95;;;3.83;;
63714;SDS011;49858;48.956;9.076;2023-03-21T07:20:24;6.75;;;4.20;;
63714;SDS011;49858;48.956;9.076;2023-03-21T07:22:52;10.10;;;4.00;;
63714;SDS011;49858;48.956;9.076;2023-03-21T07:25:20;4.70;;;3.38;;
63714;SDS011;49858;48.956;9.076;2023-03-21T07:27:48;4.93;;;3.40;;
63714;SDS011;49858;48.956;9.076;2023-03-21T07:30:19;4.85;;;3.15;;
63714;SDS011;49858;48.956;9.076;2023-03-21T07:32:50;4.78;;;2.63;;
63714;SDS011;49858;48.956;9.076;2023-03-21T07:35:20;4.82;;;3.15;;
63714;SDS011;49858;48.956;9.076;2023-03-21T07:37:48;5.00;;;3.35;;
63714;SDS011;49858;48.956;9.076;2023-03-21T07:40:17;7.70;;;4.13;;
63714;SDS011;49858;48.956;9.076;2023-03-21T07:42:47;7.65;;;3.60;;
63714;SDS011;49858;48.956;9.076;2023-03-21T07:45:28;4.47;;;3.40;;
63714;SDS011;49858;48.956;9.076;2023-03-21T07:47:56;6.22;;;3.53;;
63714;SDS011;49858;48.956;9.076;2023-03-21T07:50:23;7.30;;;3.90;;
63714;SDS011;49858;48.956;9.076;2023-03-21T07:52:51;5.95;;;3.85;;
63714;SDS011;49858;48.956;9.076;2023-03-21T07:55:21;7.15;;;3.85;;
63714;SDS011;49858;48.956;9.076;2023-03-21T07:57:49;7.70;;;3.58;;
63714;SDS011;49858;48.956;9.076;2023-03-21T08:00:18;5.22;;;3.40;;
63714;SDS011;49858;48.956;9.076;2023-03-21T08:02:50;5.75;;;3.30;;
63714;SDS011;49858;48.956;9.076;2023-03-21T08:05:24;8.95;;;3.50;;
63714;SDS011;49858;48.956;9.076;2023-03-21T08:07:53;9.95;;;3.90;;
63714;SDS011;49858;48.956;9.076;2023-03-21T08:10:21;5.18;;;2.90;;
63714;SDS011;49858;48.956;9.076;2023-03-21T08:12:49;7.65;;;3.03;;
63714;SDS011;49858;48.956;9.076;2023-03-21T08:15:17;6.68;;;3.63;;
63714;SDS011;49858;48.956;9.076;2023-03-21T08:17:45;4.60;;;3.10;;
63714;SDS011;49858;48.956;9.076;2023-03-21T08:20:15;5.57;;;3.33;;
63714;SDS011;49858;48.956;9.076;2023-03-21T08:22:47;6.03;;;3.40;;
63714;SDS011;49858;48.956;9.076;2023-03-21T08:25:16;5.90;;;2.72;;
63714;SDS011;49858;48.956;9.076;2023-03-21T08:27:45;4.13;;;3.00;;
63714;SDS011;49858;48.956;9.076;2023-03-21T08:30:14;6.85;;;3.10;;
63714;SDS011;49858;48.956;9.076;2023-03-21T08:32:43;7.13;;;3.20;;
63714;SDS011;49858;48.956;9.076;2023-03-21T08:35:12;8.18;;;3.28;;
63714;SDS011;49858;48.956;9.076;2023-03-21T08:37:42;4.88;;;3.10;;
63714;SDS011;49858;48.956;9.076;2023-03-21T08:40:11;4.57;;;2.80;;
63714;SDS011;49858;48.956;9.076;2023-03-21T08:42:41;4.93;;;2.60;;
63714;SDS011;49858;48.956;9.076;2023-03-21T08:45:10;4.95;;;2.50;;
63714;SDS011;49858;48.956;9.076;2023-03-21T08:47:38;5.57;;;2.60;;
63714;SDS011;49858;48.956;9.076;2023-03-21T08:50:07;10.25;;;3.00;;
63714;SDS011;49858;48.956;9.076;2023-03-21T08:52:37;6.72;;;2.50;;
63714;SDS011;49858;48.956;9.076;2023-03-21T08:55:07;5.15;;;2.88;;
63714;SDS011;49858;48.956;9.076;2023-03-21T08:57:35;3.92;;;2.58;;
63714;SDS011;49858;48.956;9.076;2023-03-21T09:00:04;4.00;;;2.95;;
63714;SDS011;49858;48.956;9.076;2023-03-21T09:02:37;6.00;;;2.45;;
63714;SDS011;49858;48.956;9.076;2023-03-21T09:05:06;3.83;;;2.30;;
63714;SDS011;49858;48.956;9.076;2023-03-21T09:07:36;4.32;;;2.00;;
63714;SDS011;49858;48.956;9.076;2023-03-21T09:10:05;6.40;;;3.47;;
63714;SDS011;49858;48.956;9.076;2023-03-21T09:12:52;5.78;;;2.67;;
63714;SDS011;49858;48.956;9.076;2023-03-21T09:15:21;5.50;;;2.60;;
63714;SDS011;49858;48.956;9.076;2023-03-21T09:17:50;4.55;;;3.00;;
63714;SDS011;49858;48.956;9.076;2023-03-21T09:20:22;4.60;;;2.15;;
63714;SDS011;49858;48.956;9.076;2023-03-21T09:22:57;3.78;;;1.88;;
63714;SDS011;49858;48.956;9.076;2023-03-21T09:25:28;5.72;;;2.17;;
63714;SDS011;49858;48.956;9.076;2023-03-21T09:27:57;5.35;;;2.28;;
63714;SDS011;49858;48.956;9.076;2023-03-21T09:30:25;5.13;;;2.50;;
63714;SDS011;49858;48.956;9.076;2023-03-21T09:32:53;4.47;;;2.00;;
63714;SDS011;49858;48.956;9.076;2023-03-21T09:35:21;4.07;;;1.90;;
63714;SDS011;49858;48.956;9.076;2023-03-21T09:37:50;5.05;;;1.80;;
63714;SDS011;49858;48.956;9.076;2023-03-21T09:40:19;5.93;;;1.65;;
63714;SDS011;49858;48.956;9.076;2023-03-21T09:42:57;2.88;;;1.70;;
63714;SDS011;49858;48.956;9.076;2023-03-21T09:45:34;4.03;;;1.50;;
63714;SDS011;49858;48.956;9.076;2023-03-21T09:48:08;2.45;;;1.60;;
63714;SDS011;49858;48.956;9.076;2023-03-21T09:50:45;5.80;;;1.92;;
63714;SDS011;49858;48.956;9.076;2023-03-21T09:53:14;3.67;;;1.65;;
63714;SDS011;49858;48.956;9.076;2023-03-21T09:55:46;1.63;;;1.20;;
63714;SDS011;49858;48.956;9.076;2023-03-21T09:58:18;2.95;;;1.50;;
63714;SDS011;49858;48.956;9.076;2023-03-21T10:00:53;1.60;;;1.00;;
63714;SDS011;49858;48.956;9.076;2023-03-21T10:03:28;2.72;;;1.33;;
63714;SDS011;49858;48.956;9.076;2023-03-21T10:06:01;3.30;;;1.30;;
63714;SDS011;49858;48.956;9.076;2023-03-21T10:08:34;2.10;;;1.35;;
63714;SDS011;49858;48.956;9.076;2023-03-21T10:11:05;2.90;;;0.95;;
63714;SDS011;49858;48.956;9.076;2023-03-21T10:13:40;3.72;;;1.60;;
63714;SDS011;49858;48.956;9.076;2023-03-21T10:16:13;2.67;;;1.42;;
63714;SDS011;49858;48.956;9.076;2023-03-21T10:18:43;1.75;;;1.40;;
63714;SDS011;49858;48.956;9.076;2023-03-21T10:21:14;3.47;;;1.70;;
63714;SDS011;49858;48.956;9.076;2023-03-21T10:24:08;2.50;;;1.52;;
63714;SDS011;49858;48.956;9.076;2023-03-21T10:26:37;4.40;;;1.50;;
63714;SDS011;49858;48.956;9.076;2023-03-21T10:29:07;4.75;;;1.33;;
63714;SDS011;49858;48.956;9.076;2023-03-21T10:31:39;2.67;;;1.58;;
63714;SDS011;49858;48.956;9.076;2023-03-21T10:34:09;5.63;;;1.42;;
63714;SDS011;49858;48.956;9.076;2023-03-21T10:36:42;6.43;;;1.70;;
63714;SDS011;49858;48.956;9.076;2023-03-21T10:39:14;3.83;;;1.50;;
63714;SDS011;49858;48.956;9.076;2023-03-21T10:41:48;5.10;;;1.83;;
63714;SDS011;49858;48.956;9.076;2023-03-21T10:44:17;5.80;;;1.80;;
63714;SDS011;49858;48.956;9.076;2023-03-21T10:46:50;3.80;;;1.20;;
63714;SDS011;49858;48.956;9.076;2023-03-21T10:49:19;4.53;;;1.60;;
63714;SDS011;49858;48.956;9.076;2023-03-21T10:51:48;4.22;;;1.50;;
63714;SDS011;49858;48.956;9.076;2023-03-21T10:54:19;4.43;;;1.55;;
63714;SDS011;49858;48.956;9.076;2023-03-21T10:56:54;5.25;;;1.80;;
63714;SDS011;49858;48.956;9.076;2023-03-21T10:59:25;5.80;;;1.63;;
63714;SDS011;49858;48.956;9.076;2023-03-21T11:01:55;2.33;;;1.48;;
63714;SDS011;49858;48.956;9.076;2023-03-21T11:04:23;4.88;;;1.40;;
63714;SDS011;49858;48.956;9.076;2023-03-21T11:06:54;4.03;;;1.63;;
63714;SDS011;49858;48.956;9.076;2023-03-21T11:09:25;4.72;;;1.45;;
63714;SDS011;49858;48.956;9.076;2023-03-21T11:12:09;4.55;;;1.55;;
63714;SDS011;49858;48.956;9.076;2023-03-21T11:14:39;3.38;;;1.50;;
63714;SDS011;49858;48.956;9.076;2023-03-21T11:17:18;2.80;;;1.73;;
63714;SDS011;49858;48.956;9.076;2023-03-21T11:19:48;3.40;;;1.60;;
63714;SDS011;49858;48.956;9.076;2023-03-21T11:22:18;3.47;;;1.42;;
63714;SDS011;49858;48.956;9.076;2023-03-21T11:24:49;2.80;;;1.48;;
63714;SDS011;49858;48.956;9.076;2023-03-21T11:27:18;7.25;;;1.92;;
63714;SDS011;49858;48.956;9.076;2023-03-21T11:29:48;2.13;;;1.50;;
63714;SDS011;49858;48.956;9.076;2023-03-21T11:32:22;3.03;;;1.55;;
63714;SDS011;49858;48.956;9.076;2023-03-21T11:34:53;3.85;;;1.50;;
63714;SDS011;49858;48.956;9.076;2023-03-21T11:37:24;1.70;;;1.30;;
63714;SDS011;49858;48.956;9.076;2023-03-21T11:39:56;2.80;;;1.50;;
63714;SDS011;49858;48.956;9.076;2023-03-21T11:42:40;2.00;;;1.35;;
63714;SDS011;49858;48.956;9.076;2023-03-21T11:45:13;2.55;;;1.50;;
63714;SDS011;49858;48.956;9.076;2023-03-21T11:47:43;2.80;;;1.40;;
63714;SDS011;49858;48.956;9.076;2023-03-21T11:50:18;4.07;;;1.83;;
63714;SDS011;49858;48.956;9.076;2023-03-21T11:53:05;2.70;;;1.45;;
63714;SDS011;49858;48.956;9.076;2023-03-21T11:55:46;4.50;;;1.70;;
63714;SDS011;49858;48.956;9.076;2023-03-21T11:58:31;3.83;;;1.42;;
63714;SDS011;49858;48.956;9.076;2023-03-21T12:01:14;5.63;;;1.50;;
63714;SDS011;49858;48.956;9.076;2023-03-21T12:04:06;3.08;;;1.63;;
63714;SDS011;49858;48.956;9.076;2023-03-21T12:06:47;3.42;;;1.30;;
63714;SDS011;49858;48.956;9.076;2023-03-21T12:09:24;3.42;;;1.50;;
63714;SDS011;49858;48.956;9.076;2023-03-21T12:12:13;3.67;;;1.58;;
63714;SDS011;49858;48.956;9.076;2023-03-21T12:15:05;4.97;;;1.75;;
63714;SDS011;49858;48.956;9.076;2023-03-21T12:17:45;2.47;;;1.42;;
63714;SDS011;49858;48.956;9.076;2023-03-21T12:20:29;2.47;;;1.50;;
63714;SDS011;49858;48.956;9.076;2023-03-21T12:23:12;3.03;;;1.50;;
63714;SDS011;49858;48.956;9.076;2023-03-21T12:25:48;1.40;;;1.20;;
63714;SDS011;49858;48.956;9.076;2023-03-21T12:28:24;3.45;;;1.65;;
63714;SDS011;49858;48.956;9.076;2023-03-21T12:31:07;3.22;;;1.50;;
63714;SDS011;49858;48.956;9.076;2023-03-21T12:33:47;2.75;;;1.35;;
63714;SDS011;49858;48.956;9.076;2023-03-21T12:36:28;1.60;;;1.13;;
63714;SDS011;49858;48.956;9.076;2023-03-21T12:39:12;3.33;;;1.55;;
63714;SDS011;49858;48.956;9.076;2023-03-21T12:41:53;2.85;;;1.50;;
63714;SDS011;49858;48.956;9.076;2023-03-21T12:44:32;3.17;;;1.25;;
63714;SDS011;49858;48.956;9.076;2023-03-21T12:47:08;3.50;;;1.60;;
63714;SDS011;49858;48.956;9.076;2023-03-21T12:49:41;2.20;;;1.50;;
63714;SDS011;49858;48.956;9.076;2023-03-21T12:52:15;2.40;;;1.58;;
63714;SDS011;49858;48.956;9.076;2023-03-21T12:54:49;1.80;;;1.20;;
63714;SDS011;49858;48.956;9.076;2023-03-21T12:57:20;2.85;;;1.33;;
63714;SDS011;49858;48.956;9.076;2023-03-21T12:59:53;4.57;;;1.50;;
63714;SDS011;49858;48.956;9.076;2023-03-21T13:02:28;2.80;;;1.55;;
63714;SDS011;49858;48.956;9.076;2023-03-21T13:05:02;3.75;;;1.42;;
63714;SDS011;49858;48.956;9.076;2023-03-21T13:07:38;2.05;;;1.27;;
63714;SDS011;49858;48.956;9.076;2023-03-21T13:10:11;3.85;;;1.50;;
63714;SDS011;49858;48.956;9.076;2023-03-21T13:12:47;2.50;;;1.40;;
63714;SDS011;49858;48.956;9.076;2023-03-21T13:15:28;2.25;;;1.15;;
63714;SDS011;49858;48.956;9.076;2023-03-21T13:18:11;3.58;;;1.50;;
63714;SDS011;49858;48.956;9.076;2023-03-21T13:20:47;4.50;;;2.00;;
63714;SDS011;49858;48.956;9.076;2023-03-21T13:23:20;4.72;;;1.60;;
63714;SDS011;49858;48.956;9.076;2023-03-21T13:25:49;2.63;;;1.67;;
63714;SDS011;49858;48.956;9.076;2023-03-21T13:28:19;2.90;;;1.75;;
63714;SDS011;49858;48.956;9.076;2023-03-21T13:30:49;3.05;;;1.65;;
63714;SDS011;49858;48.956;9.076;2023-03-21T13:33:19;4.22;;;1.75;;
63714;SDS011;49858;48.956;9.076;2023-03-21T13:35:57;4.07;;;1.92;;
63714;SDS011;49858;48.956;9.076;2023-03-21T13:38:31;4.25;;;1.88;;
63714;SDS011;49858;48.956;9.076;2023-03-21T13:41:00;2.45;;;1.63;;
63714;SDS011;49858;48.956;9.076;2023-03-21T13:43:34;4.68;;;1.90;;
63714;SDS011;49858;48.956;9.076;2023-03-21T13:46:08;3.97;;;1.90;;
63714;SDS011;49858;48.956;9.076;2023-03-21T13:48:41;4.43;;;2.15;;
63714;SDS011;49858;48.956;9.076;2023-03-21T13:51:44;5.82;;;2.35;;
63714;SDS011;49858;48.956;9.076;2023-03-21T13:54:27;4.25;;;1.92;;
63714;SDS011;49858;48.956;9.076;2023-03-21T13:57:22;3.65;;;2.15;;
63714;SDS011;49858;48.956;9.076;2023-03-21T14:00:15;3.63;;;1.95;;
63714;SDS011;49858;48.956;9.076;2023-03-21T14:02:50;6.68;;;2.22;;
63714;SDS011;49858;48.956;9.076;2023-03-21T14:05:22;5.57;;;2.13;;
63714;SDS011;49858;48.956;9.076;2023-03-21T14:07:57;4.65;;;2.10;;
63714;SDS011;49858;48.956;9.076;2023-03-21T14:10:43;3.72;;;2.20;;
63714;SDS011;49858;48.956;9.076;2023-03-21T14:13:15;9.57;;;2.70;;
63714;SDS011;49858;48.956;9.076;2023-03-21T14:15:46;5.32;;;2.22;;
63714;SDS011;49858;48.956;9.076;2023-03-21T14:18:22;6.28;;;2.10;;
63714;SDS011;49858;48.956;9.076;2023-03-21T14:21:15;9.55;;;2.35;;
63714;SDS011;49858;48.956;9.076;2023-03-21T14:23:59;5.32;;;2.50;;
63714;SDS011;49858;48.956;9.076;2023-03-21T14:26:29;3.85;;;2.08;;
63714;SDS011;49858;48.956;9.076;2023-03-21T14:29:00;5.03;;;2.75;;
63714;SDS011;49858;48.956;9.076;2023-03-21T14:31:40;5.03;;;2.45;;
63714;SDS011;49858;48.956;9.076;2023-03-21T14:34:11;4.35;;;2.30;;
63714;SDS011;49858;48.956;9.076;2023-03-21T14:36:42;4.78;;;2.45;;
63714;SDS011;49858;48.956;9.076;2023-03-21T14:39:25;5.45;;;2.90;;
63714;SDS011;49858;48.956;9.076;2023-03-21T14:41:55;5.00;;;2.22;;
63714;SDS011;49858;48.956;9.076;2023-03-21T14:44:32;3.25;;;1.95;;
63714;SDS011;49858;48.956;9.076;2023-03-21T14:47:17;7.13;;;2.30;;
63714;SDS011;49858;48.956;9.076;2023-03-21T14:49:47;5.20;;;2.78;;
63714;SDS011;49858;48.956;9.076;2023-03-21T14:52:17;3.13;;;2.38;;
63714;SDS011;49858;48.956;9.076;2023-03-21T14:54:49;6.50;;;2.70;;
63714;SDS011;49858;48.956;9.076;2023-03-21T14:57:19;4.75;;;2.50;;
63714;SDS011;49858;48.956;9.076;2023-03-21T14:59:49;2.88;;;1.95;;
63714;SDS011;49858;48.956;9.076;2023-03-21T15:02:21;5.40;;;2.65;;
63714;SDS011;49858;48.956;9.076;2023-03-21T15:04:52;3.92;;;2.50;;
63714;SDS011;49858;48.956;9.076;2023-03-21T15:07:23;4.97;;;2.33;;
63714;SDS011;49858;48.956;9.076;2023-03-21T15:09:55;4.05;;;2.42;;
63714;SDS011;49858;48.956;9.076;2023-03-21T15:12:24;3.90;;;2.40;;
63714;SDS011;49858;48.956;9.076;2023-03-21T15:14:52;5.55;;;2.83;;
63714;SDS011;49858;48.956;9.076;2023-03-21T15:17:20;3.72;;;2.50;;
63714;SDS011;49858;48.956;9.076;2023-03-21T15:19:49;7.40;;;2.63;;
63714;SDS011;49858;48.956;9.076;2023-03-21T15:22:18;6.13;;;3.05;;
63714;SDS011;49858;48.956;9.076;2023-03-21T15:27:22;5.00;;;2.30;;
63714;SDS011;49858;48.956;9.076;2023-03-21T15:29:51;4.40;;;2.65;;